createdAt,value
2022-08-22T00:00:15.386Z,53.71
2022-08-22T00:02:55.205Z,50.31
2022-08-22T00:03:08.534Z,44.14
2022-08-22T00:03:10.106Z,46.88
2022-08-22T00:03:17.501Z,53.52
2022-08-22T00:05:51.929Z,52.51
2022-08-22T00:08:30.789Z,52.13
2022-08-22T00:11:05.458Z,52.28
2022-08-22T00:14:01.648Z,52.20
2022-08-22T00:16:42.080Z,52.03
2022-08-22T00:19:29.699Z,53.00
2022-08-22T00:22:02.468Z,52.62
2022-08-22T00:24:39.183Z,53.10
2022-08-22T00:27:15.215Z,53.35
2022-08-22T00:29:51.820Z,53.31
2022-08-22T00:32:41.133Z,52.98
2022-08-22T00:35:22.132Z,53.00
2022-08-22T00:38:15.211Z,53.41
2022-08-22T00:41:00.225Z,54.45
2022-08-22T00:44:00.976Z,53.65
2022-08-22T00:46:44.106Z,53.53
2022-08-22T00:49:13.704Z,53.69
2022-08-22T00:52:13.662Z,54.31
2022-08-22T00:54:52.186Z,54.45
2022-08-22T00:57:40.045Z,54.21
2022-08-22T01:00:23.411Z,54.11
2022-08-22T01:03:11.314Z,55.16
2022-08-22T01:05:40.886Z,54.56
2022-08-22T01:08:32.361Z,54.70
2022-08-22T01:10:58.808Z,54.39
2022-08-22T01:13:57.780Z,54.86
2022-08-22T01:16:54.740Z,55.25
2022-08-22T01:19:44.397Z,55.33
2022-08-22T01:22:32.720Z,55.89
2022-08-22T01:25:26.555Z,54.90
2022-08-22T01:28:05.387Z,54.55
2022-08-22T01:31:03.301Z,54.72
2022-08-22T01:34:01.633Z,54.82
2022-08-22T01:36:49.846Z,52.92
2022-08-22T01:39:34.221Z,52.75
2022-08-22T01:42:16.099Z,52.91
2022-08-22T01:45:14.945Z,54.25
2022-08-22T01:47:54.971Z,54.92
2022-08-22T01:50:23.694Z,54.94
2022-08-22T01:52:50.925Z,55.87
2022-08-22T01:55:30.432Z,55.92
2022-08-22T01:57:59.889Z,56.09
2022-08-22T02:00:34.618Z,56.09
2022-08-22T02:03:08.282Z,56.26
2022-08-22T02:05:40.302Z,57.53
2022-08-22T02:08:31.471Z,56.99
2022-08-22T02:11:06.341Z,56.61
2022-08-22T02:13:46.453Z,56.72
2022-08-22T02:16:38.098Z,56.94
2022-08-22T02:19:13.785Z,56.42
2022-08-22T02:21:42.692Z,56.17
2022-08-22T02:24:24.476Z,56.86
2022-08-22T02:27:21.649Z,56.88
2022-08-22T02:30:00.423Z,57.24
2022-08-22T02:32:35.606Z,57.34
2022-08-22T02:35:18.444Z,56.71
2022-08-22T02:38:03.719Z,56.82
2022-08-22T02:40:32.235Z,56.62
2022-08-22T02:43:01.576Z,56.26
2022-08-22T02:45:38.979Z,56.62
2022-08-22T02:48:17.718Z,56.91
2022-08-22T02:51:01.751Z,57.02
2022-08-22T02:53:55.863Z,57.44
2022-08-22T02:56:39.432Z,57.13
2022-08-22T02:59:37.119Z,58.02
2022-08-22T03:02:27.705Z,57.48
2022-08-22T03:05:16.322Z,57.43
2022-08-22T03:07:59.990Z,57.18
2022-08-22T03:10:30.349Z,57.43
2022-08-22T03:13:16.530Z,57.50
2022-08-22T03:15:48.605Z,57.31
2022-08-22T03:18:40.426Z,57.23
2022-08-22T03:21:15.820Z,57.50
2022-08-22T03:23:43.710Z,57.10
2022-08-22T03:26:29.621Z,57.22
2022-08-22T03:29:03.382Z,58.14
2022-08-22T03:31:31.262Z,57.53
2022-08-22T03:34:23.694Z,57.41
2022-08-22T03:37:14.890Z,57.08
2022-08-22T03:39:44.494Z,56.62
2022-08-22T03:42:34.522Z,56.38
2022-08-22T03:45:35.337Z,57.11
2022-08-22T03:48:38.778Z,58.09
2022-08-22T03:51:26.990Z,58.27
2022-08-22T03:54:12.158Z,57.27
2022-08-22T03:57:29.946Z,57.13
2022-08-22T04:00:38.238Z,57.28
2022-08-22T04:03:05.501Z,57.65
2022-08-22T04:05:54.273Z,57.74
2022-08-22T04:08:26.278Z,58.24
2022-08-22T04:11:03.770Z,59.38
2022-08-22T04:13:36.422Z,58.80
2022-08-22T04:16:14.623Z,58.80
2022-08-22T04:19:02.967Z,58.69
2022-08-22T04:21:32.877Z,57.85
2022-08-22T04:24:11.582Z,56.52
2022-08-22T04:26:41.556Z,57.16
2022-08-22T04:29:25.562Z,57.18
2022-08-22T04:32:20.743Z,56.61
2022-08-22T04:34:52.248Z,57.17
2022-08-22T04:37:31.594Z,57.30
2022-08-22T04:40:15.836Z,57.15
2022-08-22T04:42:47.242Z,57.05
2022-08-22T04:45:24.457Z,56.77
2022-08-22T04:48:19.249Z,57.35
2022-08-22T04:51:12.103Z,57.06
2022-08-22T04:54:06.651Z,56.87
2022-08-22T04:56:43.805Z,56.53
2022-08-22T04:59:16.811Z,56.45
2022-08-22T05:01:43.344Z,56.07
2022-08-22T05:04:14.331Z,56.87
2022-08-22T05:06:46.063Z,57.62
2022-08-22T05:09:17.204Z,57.38
2022-08-22T05:11:46.388Z,57.75
2022-08-22T05:14:27.987Z,57.18
2022-08-22T05:16:56.518Z,56.74
2022-08-22T05:19:37.309Z,56.81
2022-08-22T05:22:13.709Z,56.57
2022-08-22T05:24:43.485Z,55.87
2022-08-22T05:27:13.663Z,55.52
2022-08-22T05:29:43.348Z,55.12
2022-08-22T05:32:20.916Z,55.00
2022-08-22T05:34:48.348Z,54.46
2022-08-22T05:37:24.858Z,54.01
2022-08-22T05:39:55.163Z,53.40
2022-08-22T05:42:34.232Z,53.26
2022-08-22T05:45:02.665Z,53.50
2022-08-22T05:47:47.909Z,52.64
2022-08-22T05:50:46.398Z,52.55
2022-08-22T05:53:19.081Z,52.11
2022-08-22T05:56:05.062Z,52.47
2022-08-22T05:58:49.847Z,52.00
2022-08-22T06:01:39.216Z,52.43
2022-08-22T06:04:11.794Z,52.46
2022-08-22T06:07:06.983Z,52.45
2022-08-22T06:09:56.048Z,51.90
2022-08-22T06:12:39.503Z,52.13
2022-08-22T06:15:23.230Z,52.37
2022-08-22T06:18:05.061Z,51.96
2022-08-22T06:20:36.095Z,51.20
2022-08-22T06:23:04.008Z,50.92
2022-08-22T06:25:33.731Z,50.60
2022-08-22T06:28:07.857Z,50.18
2022-08-22T06:30:35.695Z,50.13
2022-08-22T06:33:07.209Z,49.93
2022-08-22T06:36:08.294Z,49.68
2022-08-22T06:39:11.496Z,49.29
2022-08-22T06:41:49.397Z,49.33
2022-08-22T06:44:20.016Z,48.92
2022-08-22T06:46:48.155Z,48.91
2022-08-22T06:49:15.462Z,48.49
2022-08-22T06:51:42.403Z,48.32
2022-08-22T06:54:16.306Z,48.19
2022-08-22T06:56:45.611Z,48.03
2022-08-22T06:59:17.927Z,47.01
2022-08-22T07:04:25.951Z,47.00
2022-08-22T07:06:54.848Z,46.68
2022-08-22T07:09:38.855Z,46.04
2022-08-22T07:12:12.078Z,45.31
2022-08-22T07:14:42.911Z,44.18
2022-08-22T07:17:17.109Z,44.47
2022-08-22T07:19:49.514Z,43.98
2022-08-22T07:22:24.117Z,43.86
2022-08-22T07:24:54.075Z,42.68
2022-08-22T07:27:30.813Z,42.69
2022-08-22T07:30:04.462Z,42.83
2022-08-22T07:32:43.167Z,43.36
2022-08-22T07:35:33.558Z,42.61
2022-08-22T07:38:16.895Z,42.33
2022-08-22T07:40:46.703Z,42.72
2022-08-22T07:43:38.124Z,41.49
2022-08-22T07:46:23.084Z,40.99
2022-08-22T07:49:34.488Z,39.80
2022-08-22T07:52:10.444Z,38.42
2022-08-22T07:54:43.091Z,37.77
2022-08-22T07:57:14.803Z,37.31
2022-08-22T07:59:52.016Z,36.80
2022-08-22T08:02:19.254Z,38.32
2022-08-22T08:04:49.005Z,38.92
2022-08-22T08:07:17.881Z,38.90
2022-08-22T08:09:50.043Z,38.03
2022-08-22T08:12:19.492Z,36.86
2022-08-22T08:14:50.112Z,36.55
2022-08-22T08:17:32.262Z,35.32
2022-08-22T08:20:02.211Z,34.12
2022-08-22T08:22:29.771Z,35.01
2022-08-22T08:24:58.677Z,34.68
2022-08-22T08:27:59.973Z,35.36
2022-08-22T08:30:40.400Z,35.52
2022-08-22T08:33:25.528Z,34.91
2022-08-22T08:36:02.130Z,36.33
2022-08-22T08:38:32.972Z,34.87
2022-08-22T08:41:26.049Z,34.52
2022-08-22T08:44:01.815Z,33.40
2022-08-22T08:46:55.813Z,32.78
2022-08-22T08:49:42.976Z,33.82
2022-08-22T08:52:18.851Z,33.44
2022-08-22T08:54:55.595Z,32.49
2022-08-22T08:57:44.108Z,31.90
2022-08-22T09:00:20.889Z,29.73
2022-08-22T09:03:07.881Z,28.46
2022-08-22T09:06:13.643Z,28.01
2022-08-22T09:08:57.617Z,27.40
2022-08-22T09:11:44.509Z,27.27
2022-08-22T09:14:37.560Z,25.76
2022-08-22T09:17:16.087Z,25.84
2022-08-22T09:20:02.875Z,24.99
2022-08-22T09:23:17.753Z,24.52
2022-08-22T09:25:53.173Z,25.10
2022-08-22T09:28:41.162Z,26.16
2022-08-22T09:31:32.779Z,23.60
2022-08-22T09:34:35.780Z,18.69
2022-08-22T09:37:02.745Z,15.89
2022-08-22T09:39:49.483Z,14.60
2022-08-22T09:42:38.078Z,13.11
2022-08-22T09:45:38.764Z,11.97
2022-08-22T09:48:15.779Z,9.66
2022-08-22T09:51:31.341Z,10.55
2022-08-22T09:54:07.291Z,9.61
2022-08-22T09:57:01.411Z,7.97
2022-08-22T09:59:50.873Z,7.88
2022-08-22T10:02:30.260Z,6.64
2022-08-22T10:05:40.571Z,5.49
2022-08-22T10:08:28.391Z,6.48
2022-08-22T10:11:09.917Z,5.65
2022-08-22T10:14:00.806Z,6.74
2022-08-22T10:16:43.545Z,5.80
2022-08-22T10:19:31.987Z,5.68
2022-08-22T10:22:22.041Z,4.62
2022-08-22T10:25:00.674Z,5.02
2022-08-22T10:27:52.536Z,4.33
2022-08-22T10:30:22.430Z,5.06
2022-08-22T10:33:14.473Z,4.33
2022-08-22T10:35:52.243Z,4.68
2022-08-22T10:38:28.716Z,4.41
2022-08-22T10:41:09.414Z,4.23
2022-08-22T10:43:59.067Z,4.08
2022-08-22T10:46:42.227Z,3.28
2022-08-22T10:49:37.026Z,3.74
2022-08-22T10:52:16.197Z,2.69
2022-08-22T10:55:12.753Z,3.66
2022-08-22T10:58:02.148Z,3.69
2022-08-22T11:00:33.391Z,3.32
2022-08-22T11:03:09.919Z,4.21
2022-08-22T11:05:43.945Z,3.42
2022-08-22T11:08:35.222Z,2.86
2022-08-22T11:11:39.798Z,3.14
2022-08-22T11:14:13.406Z,3.64
2022-08-22T11:17:02.761Z,3.46
2022-08-22T11:20:22.271Z,2.76
2022-08-22T11:23:12.494Z,2.89
2022-08-22T11:25:52.449Z,2.55
2022-08-22T11:28:58.010Z,3.28
2022-08-22T11:32:10.046Z,3.04
2022-08-22T11:35:01.212Z,3.05
2022-08-22T11:37:56.368Z,2.88
2022-08-22T11:40:38.561Z,2.63
2022-08-22T11:43:18.160Z,3.42
2022-08-22T11:45:51.470Z,3.66
2022-08-22T11:48:25.394Z,3.69
2022-08-22T11:51:24.958Z,4.04
2022-08-22T11:54:12.898Z,4.17
2022-08-22T11:56:45.190Z,4.39
2022-08-22T11:59:22.572Z,4.00
2022-08-22T12:01:55.091Z,3.13
2022-08-22T12:04:33.794Z,3.96
2022-08-22T12:07:20.969Z,3.48
2022-08-22T12:09:52.007Z,6.04
2022-08-22T12:12:48.266Z,7.10
2022-08-22T12:15:36.142Z,7.83
2022-08-22T12:18:40.440Z,8.09
2022-08-22T12:21:36.831Z,11.15
2022-08-22T12:24:23.471Z,13.17
2022-08-22T12:26:49.947Z,14.40
2022-08-22T12:29:34.138Z,16.07
2022-08-22T12:32:28.289Z,18.49
2022-08-22T12:35:03.731Z,19.49
2022-08-22T12:38:00.015Z,21.02
2022-08-22T12:40:29.949Z,19.79
2022-08-22T12:43:12.838Z,19.86
2022-08-22T12:45:50.734Z,20.12
2022-08-22T12:48:29.778Z,20.22
2022-08-22T12:51:20.578Z,20.48
2022-08-22T12:53:53.080Z,19.37
2022-08-22T12:56:29.483Z,20.19
2022-08-22T12:59:08.142Z,22.13
2022-08-22T13:01:43.459Z,22.32
2022-08-22T13:04:32.390Z,22.26
2022-08-22T13:07:30.574Z,21.53
2022-08-22T13:10:21.008Z,20.38
2022-08-22T13:12:50.718Z,20.60
2022-08-22T13:15:53.583Z,20.21
2022-08-22T13:18:30.221Z,21.90
2022-08-22T13:21:00.474Z,22.13
2022-08-22T13:23:39.964Z,23.29
2022-08-22T13:26:34.536Z,22.45
2022-08-22T13:29:27.195Z,21.25
2022-08-22T13:32:00.206Z,24.22
2022-08-22T13:34:40.587Z,23.88
2022-08-22T13:37:26.243Z,22.28
2022-08-22T13:39:55.991Z,23.23
2022-08-22T13:42:27.871Z,23.74
2022-08-22T13:45:02.503Z,22.81
2022-08-22T13:47:31.694Z,22.81
2022-08-22T13:50:19.170Z,23.81
2022-08-22T13:52:55.091Z,23.55
2022-08-22T13:55:31.081Z,23.93
2022-08-22T13:58:19.174Z,23.93
2022-08-22T14:01:00.956Z,23.98
2022-08-22T14:03:57.984Z,22.35
2022-08-22T14:06:41.332Z,23.18
2022-08-22T14:09:44.559Z,21.95
2022-08-22T14:12:50.908Z,21.60
2022-08-22T14:15:33.066Z,21.98
2022-08-22T14:18:30.091Z,21.49
2022-08-22T14:21:26.674Z,21.42
2022-08-22T14:23:57.488Z,22.15
2022-08-22T14:26:33.242Z,22.44
2022-08-22T14:29:08.266Z,23.85
2022-08-22T14:31:35.762Z,24.26
2022-08-22T14:34:10.452Z,25.97
2022-08-22T14:36:55.178Z,26.23
2022-08-22T14:39:38.454Z,26.14
2022-08-22T14:42:19.584Z,29.25
2022-08-22T14:45:08.468Z,30.30
2022-08-22T14:48:09.938Z,31.70
2022-08-22T14:50:43.811Z,32.37
2022-08-22T14:53:11.953Z,33.44
2022-08-22T14:55:40.785Z,34.94
2022-08-22T14:58:26.435Z,36.68
2022-08-22T15:00:56.074Z,40.64
2022-08-22T15:03:33.920Z,42.26
2022-08-22T15:06:02.072Z,46.32
2022-08-22T15:08:30.846Z,45.80
2022-08-22T15:11:08.443Z,48.08
2022-08-22T15:13:36.637Z,46.90
2022-08-22T15:16:17.783Z,48.59
2022-08-22T15:18:51.762Z,47.92
2022-08-22T15:21:24.285Z,45.79
2022-08-22T15:23:54.533Z,44.97
2022-08-22T15:26:34.191Z,39.82
2022-08-22T15:29:09.936Z,37.63
2022-08-22T15:31:39.682Z,37.26
2022-08-22T15:34:21.339Z,35.63
2022-08-22T15:37:01.448Z,34.17
2022-08-22T15:39:57.551Z,33.27
2022-08-22T15:42:31.892Z,34.06
2022-08-22T15:44:59.378Z,32.95
2022-08-22T15:47:41.442Z,32.70
2022-08-22T15:50:29.177Z,35.33
2022-08-22T15:53:09.040Z,37.74
2022-08-22T15:55:37.005Z,39.67
2022-08-22T15:58:07.431Z,40.17
2022-08-22T16:00:43.281Z,39.43
2022-08-22T16:03:32.113Z,38.52
2022-08-22T16:06:07.672Z,38.21
2022-08-22T16:08:43.962Z,36.84
2022-08-22T16:11:33.660Z,36.71
2022-08-22T16:14:24.834Z,36.31
2022-08-22T16:16:54.854Z,35.24
2022-08-22T16:19:25.367Z,34.75
2022-08-22T16:21:51.888Z,33.98
2022-08-22T16:24:18.353Z,34.04
2022-08-22T16:26:46.028Z,33.52
2022-08-22T16:29:18.013Z,33.28
2022-08-22T16:31:48.007Z,33.40
2022-08-22T16:34:17.750Z,33.82
2022-08-22T16:37:08.707Z,33.41
2022-08-22T16:39:47.815Z,33.63
2022-08-22T16:42:17.061Z,33.37
2022-08-22T16:45:02.618Z,31.84
2022-08-22T16:47:41.462Z,31.90
2022-08-22T16:50:23.310Z,31.58
2022-08-22T16:52:52.849Z,32.21
2022-08-22T16:55:28.565Z,31.65
2022-08-22T16:58:14.107Z,31.29
2022-08-22T17:00:49.866Z,31.95
2022-08-22T17:03:19.365Z,32.12
2022-08-22T17:05:45.982Z,32.84
2022-08-22T17:08:25.673Z,33.33
2022-08-22T17:11:17.233Z,32.47
2022-08-22T17:13:46.950Z,31.79
2022-08-22T17:16:35.388Z,31.55
2022-08-22T17:19:25.343Z,30.63
2022-08-22T17:21:57.400Z,30.75
2022-08-22T17:24:35.561Z,31.31
2022-08-22T17:27:19.542Z,30.61
2022-08-22T17:30:10.477Z,31.33
2022-08-22T17:32:59.962Z,30.27
2022-08-22T17:35:40.602Z,30.30
2022-08-22T17:38:19.258Z,30.18
2022-08-22T17:40:59.398Z,31.41
2022-08-22T17:43:48.714Z,30.87
2022-08-22T17:46:34.072Z,30.83
2022-08-22T17:49:25.576Z,31.50
2022-08-22T17:52:01.031Z,31.22
2022-08-22T17:54:33.885Z,31.44
2022-08-22T17:57:22.415Z,30.88
2022-08-22T17:59:56.594Z,31.16
2022-08-22T18:02:47.978Z,31.73
2022-08-22T18:05:21.821Z,31.64
2022-08-22T18:07:48.346Z,32.31
2022-08-22T18:10:14.899Z,32.13
2022-08-22T18:12:44.741Z,32.34
2022-08-22T18:15:20.915Z,32.29
2022-08-22T18:18:17.849Z,32.80
2022-08-22T18:20:50.157Z,33.73
2022-08-22T18:23:40.111Z,33.39
2022-08-22T18:26:27.522Z,33.19
2022-08-22T18:28:55.388Z,33.98
2022-08-22T18:31:46.443Z,34.76
2022-08-22T18:34:40.777Z,33.68
2022-08-22T18:37:17.097Z,34.10
2022-08-22T18:39:51.631Z,34.67
2022-08-22T18:42:31.003Z,34.49
2022-08-22T18:44:57.660Z,35.18
2022-08-22T18:47:35.677Z,35.20
2022-08-22T18:50:30.628Z,35.25
2022-08-22T18:52:57.800Z,35.19
2022-08-22T18:55:30.949Z,34.87
2022-08-22T18:58:17.643Z,35.13
2022-08-22T19:01:09.466Z,35.21
2022-08-22T19:03:57.528Z,35.01
2022-08-22T19:06:42.982Z,35.09
2022-08-22T19:09:27.172Z,34.76
2022-08-22T19:12:23.046Z,35.26
2022-08-22T19:15:11.429Z,35.71
2022-08-22T19:18:04.229Z,35.81
2022-08-22T19:20:51.883Z,36.16
2022-08-22T19:23:43.406Z,36.20
2022-08-22T19:26:37.959Z,36.31
2022-08-22T19:29:30.186Z,36.56
2022-08-22T19:32:01.961Z,36.54
2022-08-22T19:34:32.619Z,36.94
2022-08-22T19:37:32.049Z,36.71
2022-08-22T19:40:07.757Z,36.64
2022-08-22T19:42:36.908Z,36.83
2022-08-22T19:45:26.560Z,36.98
2022-08-22T19:48:10.513Z,37.04
2022-08-22T19:50:39.146Z,36.99
2022-08-22T19:53:11.670Z,37.13
2022-08-22T19:55:38.362Z,36.99
2022-08-22T19:58:31.814Z,37.02
2022-08-22T20:01:20.830Z,36.62
2022-08-22T20:03:53.154Z,36.95
2022-08-22T20:06:43.446Z,37.42
2022-08-22T20:09:32.053Z,37.26
2022-08-22T20:12:28.211Z,38.89
2022-08-22T20:14:55.415Z,38.90
2022-08-22T20:17:25.084Z,37.97
2022-08-22T20:20:17.235Z,37.65
2022-08-22T20:22:49.703Z,38.39
2022-08-22T20:25:42.066Z,38.35
2022-08-22T20:28:25.033Z,38.15
2022-08-22T20:30:57.688Z,37.38
2022-08-22T20:33:30.161Z,37.61
2022-08-22T20:35:59.567Z,37.53
2022-08-22T20:38:39.825Z,37.48
2022-08-22T20:41:22.843Z,37.90
2022-08-22T20:43:53.498Z,37.75
2022-08-22T20:46:53.577Z,37.91
2022-08-22T20:49:28.616Z,38.09
2022-08-22T20:52:07.745Z,38.08
2022-08-22T20:54:40.659Z,38.27
2022-08-22T20:57:17.081Z,38.24
2022-08-22T21:00:12.500Z,37.99
2022-08-22T21:02:42.663Z,38.06
2022-08-22T21:05:22.397Z,38.40
2022-08-22T21:08:06.357Z,38.42
2022-08-22T21:10:54.620Z,38.72
2022-08-22T21:13:39.340Z,38.48
2022-08-22T21:16:17.035Z,38.55
2022-08-22T21:18:46.180Z,38.58
2022-08-22T21:21:20.523Z,38.65
2022-08-22T21:24:01.039Z,38.32
2022-08-22T21:26:30.907Z,38.63
2022-08-22T21:29:12.843Z,38.34
2022-08-22T21:31:48.843Z,38.66
2022-08-22T21:34:28.587Z,38.56
2022-08-22T21:36:59.530Z,38.75
2022-08-22T21:39:37.289Z,38.87
2022-08-22T21:42:03.786Z,39.14
2022-08-22T21:44:40.895Z,38.86
2022-08-22T21:47:30.589Z,38.67
2022-08-22T21:50:18.815Z,38.66
2022-08-22T21:53:02.537Z,38.77
2022-08-22T21:55:29.066Z,38.63
2022-08-22T21:58:35.149Z,38.76
2022-08-22T22:01:03.992Z,38.67
2022-08-22T22:03:36.686Z,38.74
2022-08-22T22:06:05.543Z,38.75
2022-08-22T22:08:33.224Z,38.64
2022-08-22T22:11:02.476Z,38.57
2022-08-22T22:13:31.477Z,38.71
2022-08-22T22:15:58.215Z,38.54
2022-08-22T22:18:27.169Z,38.86
2022-08-22T22:20:54.727Z,39.21
2022-08-22T22:23:22.457Z,39.28
2022-08-22T22:25:50.933Z,38.82
2022-08-22T22:28:24.989Z,38.69
2022-08-22T22:30:53.303Z,39.18
2022-08-22T22:33:22.893Z,38.69
2022-08-22T22:35:50.339Z,38.87
2022-08-22T22:38:20.630Z,38.83
2022-08-22T22:40:50.176Z,39.00
2022-08-22T22:43:16.929Z,39.30
2022-08-22T22:45:43.461Z,39.09
2022-08-22T22:48:10.258Z,39.07
2022-08-22T22:50:40.611Z,39.01
2022-08-22T22:53:08.116Z,38.80
2022-08-22T22:55:36.501Z,39.07
2022-08-22T22:58:08.372Z,39.68
2022-08-22T23:00:37.182Z,39.45
2022-08-22T23:03:06.137Z,39.39
2022-08-22T23:05:33.551Z,39.21
2022-08-22T23:08:01.015Z,39.17
2022-08-22T23:10:30.084Z,39.60
2022-08-22T23:12:56.874Z,39.70
2022-08-22T23:15:23.924Z,39.64
2022-08-22T23:17:50.492Z,41.00
2022-08-22T23:20:17.126Z,41.76
2022-08-22T23:22:50.452Z,42.37
2022-08-22T23:25:17.057Z,42.92
2022-08-22T23:27:43.867Z,42.83
2022-08-22T23:30:11.684Z,42.85
2022-08-22T23:32:38.746Z,43.06
2022-08-22T23:35:05.707Z,42.59
2022-08-22T23:37:32.279Z,42.65
2022-08-22T23:39:58.875Z,42.85
2022-08-22T23:42:25.641Z,42.26
2022-08-22T23:44:52.228Z,42.02
2022-08-22T23:47:18.770Z,41.67
2022-08-22T23:49:45.716Z,42.58
2022-08-22T23:52:13.277Z,41.77
2022-08-22T23:54:40.430Z,41.36
2022-08-22T23:57:11.974Z,41.64
2022-08-22T23:59:46.212Z,41.51
